Terminal Aerodrome Forecast
Issued by NWS

Home | Current Version | Previous Version | Text Only | Print | Product List | Glossary On
Versions: 1 2 3 4 5 6 7 8 9 10 11 12 13 14 15 16 17 18 19 20 21 22 23 24 25 26 27 28 29 30 31
000
FTUS43 KICT 181542 AAB
TAFGBD
TAF AMD
KGBD 181542Z 1816/1912 VRB05KT 2SM +TSRA BR SCT020 BKN040CB
     FM181800 12007KT P6SM VCTS OVC060CB
     FM190200 33008KT P6SM SCT025 BKN040
     FM190600 34010KT P6SM BKN025
     FM190900 33010KT P6SM OVC015=

USA.gov is the U.S. government's official web portal to all federal, state and local government web resources and services.